Time;durP1;ratioP1;P1;durP2;ratioP2;P2;SDS_P1;SDS_P2;PMS_P1;PMS_P2;Temp;Humidity;BMP_temperature;BMP_pressure;BME280_temperature;BME280_humidity;BME280_pressure;Samples;Min_cycle;Max_cycle;Signal;HPM_P1;HPM_P2
2023/12/16 00:01:21;;;;;;;13.43;6.50;;;;;;;6.75;100.00;162329.56;5061583;28;20024;-64
2023/12/16 00:03:46;;;;;;;18.67;7.85;;;;;;;6.74;100.00;162326.94;5071311;28;20025;-63
2023/12/16 00:06:11;;;;;;;23.60;9.55;;;;;;;6.73;100.00;162324.22;5068624;28;20156;-62
2023/12/16 00:08:37;;;;;;;18.52;6.28;;;;;;;6.71;100.00;162318.81;5062271;28;20029;-63
2023/12/16 00:11:02;;;;;;;11.77;5.30;;;;;;;6.74;100.00;162328.25;5049866;28;20040;-63
2023/12/16 00:13:28;;;;;;;18.80;9.40;;;;;;;6.72;100.00;162321.53;5051345;28;20029;-63
2023/12/16 00:15:53;;;;;;;13.20;5.72;;;;;;;6.70;100.00;162316.13;5049472;28;20400;-63
2023/12/16 00:18:19;;;;;;;21.10;8.68;;;;;;;6.69;100.00;162313.44;5052702;28;20040;-63
2023/12/16 00:20:44;;;;;;;19.95;7.63;;;;;;;6.74;100.00;162326.94;5057983;28;20113;-63
2023/12/16 00:23:09;;;;;;;13.82;6.30;;;;;;;6.71;100.00;162318.81;5050901;28;20059;-63
2023/12/16 00:25:35;;;;;;;13.68;6.30;;;;;;;6.69;100.00;162313.44;5049331;28;20098;-63
2023/12/16 00:28:00;;;;;;;23.25;7.28;;;;;;;6.70;100.00;162316.13;5051337;28;20029;-63
2023/12/16 00:30:26;;;;;;;22.50;8.98;;;;;;;6.62;100.00;162297.28;5059139;28;20441;-63
2023/12/16 00:32:51;;;;;;;19.75;7.95;;;;;;;6.58;100.00;162285.16;5050994;28;20021;-63
2023/12/16 00:35:16;;;;;;;15.35;7.20;;;;;;;6.68;100.00;162312.09;5049340;28;20040;-62
2023/12/16 00:37:42;;;;;;;16.00;7.00;;;;;;;6.64;100.00;162302.69;5050113;28;20072;-63
2023/12/16 00:40:08;;;;;;;19.73;7.60;;;;;;;6.64;100.00;162302.69;5049571;28;20396;-64
2023/12/16 00:42:33;;;;;;;16.88;10.15;;;;;;;6.65;100.00;162304.00;5050585;28;20066;-63
2023/12/16 00:44:59;;;;;;;43.28;10.30;;;;;;;6.67;100.00;162310.72;5048813;28;20060;-63
2023/12/16 00:47:26;;;;;;;12.00;7.05;;;;;;;6.63;100.00;162299.97;5050786;28;20398;-63
2023/12/16 00:49:51;;;;;;;19.33;7.50;;;;;;;6.62;100.00;162297.28;5061870;28;20575;-63
2023/12/16 00:52:17;;;;;;;18.52;6.45;;;;;;;6.62;100.00;162297.28;5069850;28;20050;-64
2023/12/16 00:54:42;;;;;;;21.17;6.10;;;;;;;6.60;100.00;162290.56;5064187;28;20201;-62
2023/12/16 00:57:07;;;;;;;25.17;8.88;;;;;;;6.56;100.00;162281.13;5050499;28;20116;-62
2023/12/16 00:59:33;;;;;;;31.92;9.10;;;;;;;6.61;100.00;162294.56;5059446;28;20041;-62
2023/12/16 01:01:59;;;;;;;22.42;7.45;;;;;;;6.61;100.00;162294.56;5070796;28;20032;-62
2023/12/16 01:04:25;;;;;;;22.35;10.90;;;;;;;6.58;100.00;162285.16;5062593;28;20110;-62
2023/12/16 01:06:50;;;;;;;22.15;7.35;;;;;;;6.59;100.00;162289.19;5049866;28;20036;-62
2023/12/16 01:09:16;;;;;;;22.10;6.57;;;;;;;6.67;100.00;162309.41;5048976;28;20044;-62
2023/12/16 01:11:41;;;;;;;19.88;8.77;;;;;;;6.65;100.00;162305.38;5050286;28;20025;-59
2023/12/16 01:14:08;;;;;;;42.20;11.05;;;;;;;6.62;100.00;162297.28;5048620;28;20024;-62
2023/12/16 01:16:33;;;;;;;15.50;9.02;;;;;;;6.59;100.00;162287.84;5049754;28;20037;-63
2023/12/16 01:18:59;;;;;;;18.80;9.18;;;;;;;6.59;100.00;162289.19;5054513;28;20025;-63
2023/12/16 01:21:24;;;;;;;14.55;6.75;;;;;;;6.60;100.00;162291.88;5050312;28;20398;-63
2023/12/16 01:23:49;;;;;;;25.13;9.45;;;;;;;6.56;100.00;162281.13;5048863;28;20033;-62
2023/12/16 01:26:15;;;;;;;21.35;7.53;;;;;;;6.60;100.00;162291.88;5050018;28;20025;-63
2023/12/16 01:28:41;;;;;;;16.85;7.82;;;;;;;6.57;100.00;162282.44;5051642;28;20029;-63
2023/12/16 01:31:06;;;;;;;19.45;7.75;;;;;;;6.57;100.00;162283.81;5048489;28;20519;-63
2023/12/16 01:33:32;;;;;;;23.73;7.70;;;;;;;6.57;100.00;162283.81;5049692;28;20017;-63
2023/12/16 01:35:57;;;;;;;23.58;8.07;;;;;;;6.60;100.00;162291.88;5047979;28;20048;-63
2023/12/16 01:38:24;;;;;;;22.58;9.02;;;;;;;6.61;100.00;162294.56;5050418;28;20049;-64
2023/12/16 01:40:49;;;;;;;13.32;7.50;;;;;;;6.64;100.00;162302.69;5049697;28;20123;-64
2023/12/16 01:43:15;;;;;;;12.73;7.85;;;;;;;6.66;100.00;162306.69;5049655;28;20032;-63
2023/12/16 01:45:40;;;;;;;18.50;9.57;;;;;;;6.63;100.00;162298.59;5048243;28;20045;-63
2023/12/16 01:48:08;;;;;;;20.27;7.78;;;;;;;6.63;100.00;162298.59;5050056;28;20017;-63
2023/12/16 01:50:34;;;;;;;16.20;7.90;;;;;;;6.59;100.00;162289.19;5047945;28;20131;-63
2023/12/16 01:53:00;;;;;;;22.75;9.65;;;;;;;6.62;100.00;162295.94;5050032;28;20090;-63
2023/12/16 01:55:26;;;;;;;22.33;8.82;;;;;;;6.61;100.00;162294.56;5048268;28;20116;-64
2023/12/16 01:57:55;;;;;;;30.55;10.18;;;;;;;6.55;100.00;162278.44;5049418;28;20422;-63
2023/12/16 02:00:20;;;;;;;;;;;;;;;6.58;100.00;162286.53;5050049;28;20128;-64
2023/12/16 02:02:46;;;;;;;24.48;7.60;;;;;;;6.54;100.00;162274.41;5049695;28;20483;-64
2023/12/16 02:05:12;;;;;;;24.58;10.98;;;;;;;6.47;100.00;162256.88;5047950;28;20037;-64
2023/12/16 02:07:37;;;;;;;16.92;8.50;;;;;;;6.47;100.00;162256.88;5051773;28;20028;-64
2023/12/16 02:10:03;;;;;;;26.70;8.75;;;;;;;6.48;100.00;162259.59;5048445;28;20401;-64
2023/12/16 02:12:32;;;;;;;19.67;6.25;;;;;;;6.46;100.00;162254.19;5047835;28;20024;-63
2023/12/16 02:14:58;;;;;;;26.25;11.07;;;;;;;6.43;100.00;162246.13;5048098;28;20037;-64
2023/12/16 02:17:23;;;;;;;16.85;8.32;;;;;;;6.34;100.00;162223.22;5060124;28;20423;-63
2023/12/16 02:19:52;;;;;;;12.18;6.38;;;;;;;6.33;100.00;162221.91;5055872;28;20045;-63
2023/12/16 02:22:17;;;;;;;18.67;8.32;;;;;;;6.34;100.00;162224.59;5049307;28;20029;-63
2023/12/16 02:24:43;;;;;;;21.15;8.52;;;;;;;6.37;100.00;162230.00;5048027;28;20064;-63
2023/12/16 02:27:09;;;;;;;14.82;4.93;;;;;;;6.40;100.00;162238.03;5049212;28;20107;-63
2023/12/16 02:29:34;;;;;;;16.45;6.50;;;;;;;6.39;100.00;162236.72;5059447;28;20041;-64
2023/12/16 02:32:00;;;;;;;15.55;6.20;;;;;;;6.34;100.00;162224.59;5073141;28;20021;-64
2023/12/16 02:34:25;;;;;;;11.85;7.43;;;;;;;6.35;100.00;162227.28;5071345;28;20047;-63
2023/12/16 02:36:51;;;;;;;26.30;6.90;;;;;;;6.36;100.00;162228.63;5071319;28;20060;-63
2023/12/16 02:39:16;;;;;;;18.58;8.18;;;;;;;6.33;100.00;162221.91;5062746;28;20041;-62
2023/12/16 02:41:41;;;;;;;15.25;7.82;;;;;;;6.31;100.00;162216.50;5072774;28;20536;-63
2023/12/16 02:44:07;;;;;;;21.25;6.75;;;;;;;6.24;100.00;162197.66;5068263;28;20043;-63
2023/12/16 02:46:32;;;;;;;24.88;7.55;;;;;;;6.26;100.00;162203.06;5052487;28;20029;-63
2023/12/16 02:48:58;;;;;;;22.63;8.20;;;;;;;6.16;100.00;162176.13;5059617;28;20032;-62
2023/12/16 02:51:23;;;;;;;25.58;6.97;;;;;;;6.20;100.00;162186.91;5062868;28;20033;-61
2023/12/16 02:53:48;;;;;;;16.35;8.32;;;;;;;6.17;100.00;162178.81;5053349;28;20028;-61
2023/12/16 02:56:14;;;;;;;17.30;7.82;;;;;;;6.14;100.00;162170.75;5051417;28;20503;-62
2023/12/16 02:58:39;;;;;;;16.35;6.43;;;;;;;6.06;100.00;162149.22;5052510;28;20029;-62
2023/12/16 03:01:06;;;;;;;17.17;6.50;;;;;;;5.97;100.00;162127.63;5050909;28;20534;-63
2023/12/16 03:03:31;;;;;;;25.27;7.68;;;;;;;5.88;100.00;162103.41;5053699;28;20035;-63
2023/12/16 03:05:56;;;;;;;19.92;6.78;;;;;;;5.83;100.00;162089.97;5050897;28;20040;-63
2023/12/16 03:08:22;;;;;;;24.42;7.65;;;;;;;5.74;100.00;162065.72;5054841;28;20016;-63
2023/12/16 03:10:47;;;;;;;14.00;7.75;;;;;;;-146.58;100.00;69501.63;5063633;28;20045;-63
2023/12/16 03:13:13;;;;;;;14.88;7.20;;;;;;;-146.58;100.00;69501.63;5052278;28;20017;-62
2023/12/16 03:15:38;;;;;;;21.77;8.23;;;;;;;-146.58;100.00;69501.63;5050715;28;20060;-62
2023/12/16 03:18:04;;;;;;;15.25;6.70;;;;;;;-146.58;100.00;69501.63;5052142;28;20028;-62
2023/12/16 03:20:29;;;;;;;23.73;8.70;;;;;;;-146.58;100.00;69501.63;5053998;28;20045;-62
2023/12/16 03:22:55;;;;;;;13.75;6.70;;;;;;;-146.58;100.00;69501.63;5052256;28;20032;-62
2023/12/16 03:25:20;;;;;;;15.70;8.23;;;;;;;-146.58;100.00;69501.63;5050698;28;20488;-62
2023/12/16 03:27:45;;;;;;;16.55;6.93;;;;;;;-146.58;100.00;69501.63;5051877;28;20025;-62
2023/12/16 03:30:11;;;;;;;14.10;7.65;;;;;;;-146.58;100.00;69501.63;5049423;28;20041;-62
2023/12/16 03:32:36;;;;;;;19.38;8.73;;;;;;;-146.58;100.00;69501.63;5051896;28;20487;-62
2023/12/16 03:35:02;;;;;;;30.15;9.45;;;;;;;-146.58;100.00;69501.63;5050058;28;20040;-62
2023/12/16 03:37:27;;;;;;;24.25;10.93;;;;;;;-146.58;100.00;69501.63;5051603;28;20049;-62
2023/12/16 03:39:53;;;;;;;16.42;8.77;;;;;;;-146.58;100.00;69501.63;5050375;28;20476;-62
2023/12/16 03:42:19;;;;;;;20.08;9.20;;;;;;;-146.58;100.00;69501.63;5051110;28;20043;-63
2023/12/16 03:44:46;;;;;;;29.92;9.35;;;;;;;-146.58;100.00;69501.63;5050598;28;20087;-63
2023/12/16 03:47:12;;;;;;;25.73;10.70;;;;;;;-146.58;100.00;69501.63;5052191;28;20029;-63
2023/12/16 03:49:38;;;;;;;27.77;7.93;;;;;;;-146.58;100.00;69501.63;5056642;28;20114;-63
2023/12/16 03:52:03;;;;;;;16.25;8.60;;;;;;;-146.58;100.00;69501.63;5051525;28;20502;-63
2023/12/16 03:54:29;;;;;;;26.92;9.18;;;;;;;-146.58;100.00;69501.63;5050081;28;20041;-63
2023/12/16 03:56:54;;;;;;;17.25;7.30;;;;;;;-146.58;100.00;69501.63;5051252;28;20107;-63
2023/12/16 03:59:20;;;;;;;30.08;11.43;;;;;;;-146.58;100.00;69501.63;5049868;28;20057;-63
2023/12/16 04:01:45;;;;;;;22.10;10.95;;;;;;;-146.58;100.00;69501.63;5051621;28;20131;-63
2023/12/16 04:04:11;;;;;;;17.60;7.60;;;;;;;-146.58;100.00;69501.63;5049932;28;20076;-63
2023/12/16 04:06:36;;;;;;;29.08;9.55;;;;;;;-146.58;100.00;69501.63;5060625;28;20028;-64
2023/12/16 04:09:01;;;;;;;21.08;8.50;;;;;;;-146.58;100.00;69501.63;5061122;28;20036;-63
2023/12/16 04:11:27;;;;;;;18.95;7.75;;;;;;;-146.58;100.00;69501.63;5070650;28;20357;-63
2023/12/16 04:13:52;;;;;;;15.02;8.38;;;;;;;-146.58;100.00;69501.63;5069767;28;20494;-62
2023/12/16 04:16:19;;;;;;;25.08;8.43;;;;;;;-146.58;100.00;69501.63;5071346;28;20021;-62
2023/12/16 04:18:44;;;;;;;30.52;10.55;;;;;;;-146.58;100.00;69501.63;5053043;28;20028;-62
2023/12/16 04:21:10;;;;;;;21.33;8.48;;;;;;;-146.58;100.00;69501.63;5049755;28;20049;-63
2023/12/16 04:23:35;;;;;;;13.77;8.30;;;;;;;-146.58;100.00;69501.63;5050945;28;20017;-63
2023/12/16 04:26:01;;;;;;;20.85;7.40;;;;;;;-146.58;100.00;69501.63;5049297;28;20487;-62
2023/12/16 04:28:26;;;;;;;19.20;8.23;;;;;;;-146.58;100.00;69501.63;5055796;28;20383;-62
2023/12/16 04:30:51;;;;;;;24.40;9.27;;;;;;;-146.58;100.00;69501.63;5069657;28;20052;-63
2023/12/16 04:33:17;;;;;;;16.17;8.27;;;;;;;-146.58;100.00;69501.63;5068931;28;20467;-62
2023/12/16 04:35:42;;;;;;;19.98;9.15;;;;;;;-146.58;100.00;69501.63;5049441;28;20044;-62
2023/12/16 04:38:08;;;;;;;21.90;10.05;;;;;;;-146.58;100.00;69501.63;5050606;28;20049;-64
2023/12/16 04:40:34;;;;;;;19.17;10.05;;;;;;;-146.58;100.00;69501.63;5048647;28;20124;-64
2023/12/16 04:42:59;;;;;;;20.70;8.63;;;;;;;-146.58;100.00;69501.63;5050767;28;20032;-64
2023/12/16 04:45:25;;;;;;;18.30;7.85;;;;;;;-146.58;100.00;69501.63;5048892;28;20045;-63
2023/12/16 04:47:50;;;;;;;21.63;8.27;;;;;;;-146.58;100.00;69501.63;5050398;28;20028;-62
2023/12/16 04:50:16;;;;;;;25.75;10.48;;;;;;;-146.58;100.00;69501.63;5067100;28;20040;-63
2023/12/16 04:52:41;;;;;;;21.35;11.98;;;;;;;-146.58;100.00;69501.63;5069854;28;20039;-62
2023/12/16 04:55:07;;;;;;;18.92;10.20;;;;;;;-146.58;100.00;69501.63;5068496;28;20041;-62
2023/12/16 04:57:33;;;;;;;21.33;8.70;;;;;;;-146.58;100.00;69501.63;5070224;28;20107;-62
2023/12/16 04:59:58;;;;;;;32.03;11.80;;;;;;;-146.58;100.00;69501.63;5051667;28;20135;-62
2023/12/16 05:02:24;;;;;;;12.48;7.50;;;;;;;-146.58;100.00;69501.63;5062114;28;20051;-62
2023/12/16 05:04:49;;;;;;;20.67;8.43;;;;;;;-146.58;100.00;69501.63;5064657;28;20041;-62
2023/12/16 05:07:14;;;;;;;23.85;8.77;;;;;;;-146.58;100.00;69501.63;5050366;28;20020;-62
2023/12/16 05:09:40;;;;;;;22.83;9.95;;;;;;;-146.58;100.00;69501.63;5048477;28;20504;-62
2023/12/16 05:12:06;;;;;;;16.27;9.60;;;;;;;5.74;100.00;162065.72;5050486;28;20021;-60
2023/12/16 05:14:31;;;;;;;22.95;11.30;;;;;;;-146.58;100.00;69501.63;5047135;28;20500;-61
2023/12/16 05:16:59;;;;;;;27.40;9.20;;;;;;;-146.58;100.00;69501.63;5049680;28;20020;-61
2023/12/16 05:19:25;;;;;;;21.70;8.32;;;;;;;-146.58;100.00;69501.63;5059725;28;20123;-61
2023/12/16 05:21:50;;;;;;;20.00;8.48;;;;;;;-146.58;100.00;69501.63;5058912;28;20503;-61
2023/12/16 05:24:18;;;;;;;18.13;9.38;;;;;;;-146.58;100.00;69501.63;5048594;28;20037;-61
2023/12/16 05:26:43;;;;;;;24.30;8.45;;;;;;;-146.58;100.00;69501.63;5050091;28;20120;-61
2023/12/16 05:29:08;;;;;;;27.17;10.60;;;;;;;-146.58;100.00;69501.63;5057665;28;20086;-61
2023/12/16 05:31:34;;;;;;;21.85;9.88;;;;;;;-146.58;100.00;69501.63;5068611;28;20028;-61
2023/12/16 05:33:59;;;;;;;18.35;9.15;;;;;;;-146.58;100.00;69501.63;5051501;28;20028;-61
2023/12/16 05:36:24;;;;;;;25.42;9.13;;;;;;;-146.58;100.00;69501.63;5051561;28;20037;-61
2023/12/16 05:38:50;;;;;;;17.80;6.53;;;;;;;-146.58;100.00;69501.63;5055067;28;20024;-61
2023/12/16 05:41:15;;;;;;;19.63;8.88;;;;;;;-146.58;100.00;69501.63;5054679;28;20532;-61
2023/12/16 05:43:41;;;;;;;23.67;9.82;;;;;;;-146.58;100.00;69501.63;5050011;28;20032;-60
2023/12/16 05:46:06;;;;;;;14.95;7.55;;;;;;;-146.58;100.00;69501.63;5048665;28;20040;-61
2023/12/16 05:48:32;;;;;;;22.85;7.25;;;;;;;-146.58;100.00;69501.63;5049309;28;20021;-61
2023/12/16 05:50:57;;;;;;;25.27;10.30;;;;;;;-146.58;100.00;69501.63;5046889;28;20094;-61
2023/12/16 05:53:22;;;;;;;13.13;8.02;;;;;;;-146.58;100.00;69501.63;5037394;28;20052;-61
2023/12/16 05:55:48;;;;;;;33.28;11.07;;;;;;;-146.58;100.00;69501.63;5054781;28;20045;-60
2023/12/16 05:58:14;;;;;;;22.27;7.82;;;;;;;-146.58;100.00;69501.63;5046296;28;20025;-61
2023/12/16 06:00:39;;;;;;;17.23;7.82;;;;;;;-146.58;100.00;69501.63;5046812;28;20044;-61
2023/12/16 06:03:04;;;;;;;31.88;10.00;;;;;;;-146.58;100.00;69501.63;5048477;28;20036;-60
2023/12/16 06:05:30;;;;;;;23.45;7.60;;;;;;;-146.58;100.00;69501.63;5054781;28;20040;-60
2023/12/16 06:07:55;;;;;;;26.25;10.00;;;;;;;-146.58;100.00;69501.63;5059114;28;20029;-61
2023/12/16 06:10:21;;;;;;;29.45;8.90;;;;;;;-146.58;100.00;69501.63;5051267;28;20049;-62
2023/12/16 06:12:46;;;;;;;20.95;7.90;;;;;;;-146.58;100.00;69501.63;5052673;28;20013;-62
2023/12/16 06:15:11;;;;;;;21.25;6.57;;;;;;;-146.58;100.00;69501.63;5061626;28;20041;-61
2023/12/16 06:17:37;;;;;;;22.40;7.15;;;;;;;-146.58;100.00;69501.63;5072611;28;20115;-61
2023/12/16 06:20:04;;;;;;;19.80;8.82;;;;;;;-146.58;100.00;69501.63;5071399;28;20041;-61
2023/12/16 06:22:30;;;;;;;23.38;9.93;;;;;;;-146.58;100.00;69501.63;5061005;28;20112;-61
2023/12/16 06:24:57;;;;;;;15.98;8.45;;;;;;;-146.58;100.00;69501.63;5050317;28;20044;-61
2023/12/16 06:27:23;;;;;;;21.13;8.95;;;;;;;-146.58;100.00;69501.63;5052145;28;20035;-61
2023/12/16 06:29:48;;;;;;;18.55;8.35;;;;;;;-146.58;100.00;69501.63;5050684;28;20124;-61
2023/12/16 06:32:13;;;;;;;15.95;10.43;;;;;;;-146.58;100.00;69501.63;5052686;28;20021;-61
2023/12/16 06:34:39;;;;;;;20.10;9.15;;;;;;;-146.58;100.00;69501.63;5057801;28;20051;-61
2023/12/16 06:37:05;;;;;;;24.67;10.80;;;;;;;-146.58;100.00;69501.63;5071428;28;20040;-62
2023/12/16 06:39:30;;;;;;;23.90;8.93;;;;;;;-146.58;100.00;69501.63;5070977;28;20036;-61
2023/12/16 06:41:56;;;;;;;17.50;8.90;;;;;;;-146.58;100.00;69501.63;5065253;28;20028;-61
2023/12/16 06:44:21;;;;;;;20.20;8.43;;;;;;;-146.58;100.00;69501.63;5050490;28;20048;-60
2023/12/16 06:46:46;;;;;;;19.60;9.25;;;;;;;-146.58;100.00;69501.63;5052649;28;20032;-61
2023/12/16 06:49:12;;;;;;;16.58;7.40;;;;;;;-146.58;100.00;69501.63;5053610;28;20049;-61
2023/12/16 06:51:37;;;;;;;18.27;9.00;;;;;;;-146.58;100.00;69501.63;5058313;28;20480;-61
2023/12/16 06:54:03;;;;;;;24.67;9.80;;;;;;;-146.58;100.00;69501.63;5051725;28;20025;-61
2023/12/16 06:56:28;;;;;;;28.90;9.65;;;;;;;-146.58;100.00;69501.63;5062157;28;20031;-61
2023/12/16 06:58:53;;;;;;;22.30;8.68;;;;;;;-146.58;100.00;69501.63;5049883;28;20029;-61
2023/12/16 07:01:22;;;;;;;24.15;9.10;;;;;;;-146.58;100.00;69501.63;5051740;28;20353;-62
2023/12/16 07:03:47;;;;;;;31.17;12.02;;;;;;;-146.58;100.00;69501.63;5052046;28;20108;-61
2023/12/16 07:06:13;;;;;;;22.40;10.80;;;;;;;-146.58;100.00;69501.63;5068391;28;20044;-62
2023/12/16 07:08:40;;;;;;;24.55;8.18;;;;;;;-146.58;100.00;69501.63;5054094;28;20028;-61
2023/12/16 07:11:06;;;;;;;24.13;10.38;;;;;;;-146.58;100.00;69501.63;5050402;28;20370;-62
2023/12/16 07:13:31;;;;;;;29.77;10.85;;;;;;;-146.58;100.00;69501.63;5050948;28;20031;-61
2023/12/16 07:15:57;;;;;;;27.60;7.72;;;;;;;-146.58;100.00;69501.63;5050682;28;20152;-62
2023/12/16 07:18:22;;;;;;;23.77;9.02;;;;;;;-146.58;100.00;69501.63;5050777;28;20028;-58
2023/12/16 07:20:47;;;;;;;20.70;9.30;;;;;;;-146.58;100.00;69501.63;5054002;28;20408;-58
2023/12/16 07:23:13;;;;;;;20.15;8.15;;;;;;;-146.58;100.00;69501.63;5060784;28;20017;-59
2023/12/16 07:25:38;;;;;;;33.78;11.25;;;;;;;-146.58;100.00;69501.63;5050640;28;20052;-59
2023/12/16 07:28:04;;;;;;;18.77;9.88;;;;;;;-146.58;100.00;69501.63;5056604;28;20029;-59
2023/12/16 07:30:29;;;;;;;23.27;9.40;;;;;;;-146.58;100.00;69501.63;5054594;28;20049;-59
2023/12/16 07:32:54;;;;;;;29.90;9.07;;;;;;;-146.58;100.00;69501.63;5052109;28;20031;-59
2023/12/16 07:35:20;;;;;;;21.17;8.98;;;;;;;-146.58;100.00;69501.63;5050056;28;20048;-58
2023/12/16 07:37:45;;;;;;;17.65;9.07;;;;;;;-146.58;100.00;69501.63;5050526;28;20041;-58
2023/12/16 07:40:11;;;;;;;31.17;11.55;;;;;;;-146.58;100.00;69501.63;5050641;28;20032;-58
2023/12/16 07:42:37;;;;;;;21.15;10.70;;;;;;;-146.58;100.00;69501.63;5051472;28;20053;-59
2023/12/16 07:45:04;;;;;;;22.88;10.25;;;;;;;-146.58;100.00;69501.63;5049949;28;20124;-59
2023/12/16 07:47:29;;;;;;;22.38;7.85;;;;;;;-146.58;100.00;69501.63;5051476;28;20116;-59
2023/12/16 07:49:55;;;;;;;23.48;9.45;;;;;;;-146.58;100.00;69501.63;5050186;28;20604;-59
2023/12/16 07:52:21;;;;;;;19.83;8.20;;;;;;;-146.58;100.00;69501.63;5050962;28;20111;-59
2023/12/16 07:54:46;;;;;;;23.30;9.40;;;;;;;-146.58;100.00;69501.63;5049287;28;20090;-59
2023/12/16 07:57:12;;;;;;;21.52;11.18;;;;;;;-146.58;100.00;69501.63;5051892;28;20029;-59
2023/12/16 07:59:40;;;;;;;49.70;14.10;;;;;;;-146.58;100.00;69501.63;5049695;28;20203;-59
2023/12/16 08:02:08;;;;;;;16.70;8.73;;;;;;;-146.58;100.00;69501.63;5050424;28;20473;-59
2023/12/16 08:04:33;;;;;;;32.43;11.30;;;;;;;-146.58;100.00;69501.63;5044333;28;20475;-58
2023/12/16 08:06:58;;;;;;;24.58;9.10;;;;;;;-146.58;100.00;69501.63;5051152;28;20205;-58
2023/12/16 08:09:24;;;;;;;22.25;10.38;;;;;;;-146.58;100.00;69501.63;5049310;28;20056;-59
2023/12/16 08:11:50;;;;;;;19.60;8.50;;;;;;;-146.58;100.00;69501.63;5051212;28;20127;-58
2023/12/16 08:14:15;;;;;;;27.42;9.77;;;;;;;-146.58;100.00;69501.63;5049474;28;20056;-58
2023/12/16 08:16:41;;;;;;;25.10;10.13;;;;;;;-146.58;100.00;69501.63;5050972;28;20376;-58
2023/12/16 08:19:06;;;;;;;28.77;9.65;;;;;;;-146.58;100.00;69501.63;5049074;28;20094;-59
2023/12/16 08:21:31;;;;;;;29.45;9.32;;;;;;;-146.58;100.00;69501.63;5050547;28;20094;-58
2023/12/16 08:23:57;;;;;;;32.95;8.18;;;;;;;-146.58;100.00;69501.63;5049535;28;20029;-59
2023/12/16 08:26:22;;;;;;;21.50;9.00;;;;;;;-146.58;100.00;69501.63;5049971;28;20602;-58
2023/12/16 08:28:50;;;;;;;28.55;9.45;;;;;;;-146.58;100.00;69501.63;5049391;28;20032;-57
2023/12/16 08:31:15;;;;;;;26.17;8.18;;;;;;;-146.58;100.00;69501.63;5050906;28;20025;-58
2023/12/16 08:33:41;;;;;;;18.08;8.70;;;;;;;-146.58;100.00;69501.63;5050692;28;20658;-58
2023/12/16 08:36:06;;;;;;;29.38;10.50;;;;;;;-146.58;100.00;69501.63;5049344;28;20523;-58
2023/12/16 08:38:35;;;;;;;49.72;10.55;;;;;;;-146.58;100.00;69501.63;5050210;28;20040;-58
2023/12/16 08:41:04;;;;;;;17.00;9.65;;;;;;;-146.58;100.00;69501.63;5049323;28;20040;-59
2023/12/16 08:43:29;;;;;;;26.58;9.20;;;;;;;-146.58;100.00;69501.63;5050334;28;20029;-58
2023/12/16 08:45:55;;;;;;;25.02;10.18;;;;;;;-146.58;100.00;69501.63;5048967;28;20044;-59
2023/12/16 08:48:20;;;;;;;33.95;10.07;;;;;;;-146.58;100.00;69501.63;5050338;28;20021;-59
2023/12/16 08:50:45;;;;;;;25.38;9.07;;;;;;;-146.58;100.00;69501.63;5049365;28;20033;-58
2023/12/16 08:53:11;;;;;;;19.27;7.85;;;;;;;-146.58;100.00;69501.63;5050238;28;20021;-58
2023/12/16 08:55:36;;;;;;;18.25;8.52;;;;;;;-146.58;100.00;69501.63;5048774;28;20029;-59
2023/12/16 08:58:02;;;;;;;15.13;7.05;;;;;;;6.09;100.00;162157.28;5050745;28;20036;-58
2023/12/16 09:00:28;;;;;;;33.60;9.57;;;;;;;6.18;100.00;162181.50;5048254;28;20041;-58
2023/12/16 09:02:53;;;;;;;31.50;7.38;;;;;;;6.27;100.00;162204.38;5049729;28;20052;-58
2023/12/16 09:05:19;;;;;;;18.65;7.25;;;;;;;6.37;100.00;162230.00;5046867;28;20045;-58
2023/12/16 09:07:45;;;;;;;28.60;6.78;;;;;;;6.44;100.00;162248.84;5049794;28;20029;-59
2023/12/16 09:10:11;;;;;;;36.13;10.75;;;;;;;6.51;100.00;162267.69;5048397;28;20048;-58
2023/12/16 09:12:36;;;;;;;22.73;10.23;;;;;;;6.58;100.00;162286.53;5035917;28;20022;-59
2023/12/16 09:15:02;;;;;;;24.55;7.15;;;;;;;6.60;100.00;162291.88;5027782;28;20045;-58
2023/12/16 09:17:27;;;;;;;31.80;10.30;;;;;;;6.54;100.00;162275.72;5027497;28;20087;-58
2023/12/16 09:19:52;;;;;;;17.90;8.23;;;;;;;6.50;100.00;162264.97;5037441;28;20048;-58
2023/12/16 09:22:19;;;;;;;18.17;7.45;;;;;;;6.53;100.00;162273.03;5049378;28;20552;-59
2023/12/16 09:24:45;;;;;;;23.08;9.68;;;;;;;6.54;100.00;162275.72;5048426;28;20041;-58
2023/12/16 09:27:11;;;;;;;14.25;7.45;;;;;;;6.52;100.00;162270.31;5050159;28;20025;-59
2023/12/16 09:29:36;;;;;;;27.20;10.10;;;;;;;6.48;100.00;162259.59;5047638;28;20451;-58
2023/12/16 09:32:04;;;;;;;20.27;6.25;;;;;;;6.60;100.00;162291.88;5048929;28;20025;-58
2023/12/16 09:34:29;;;;;;;15.15;5.63;;;;;;;6.83;100.00;162351.13;5048226;28;20041;-59
2023/12/16 09:36:54;;;;;;;22.08;8.32;;;;;;;7.04;100.00;162404.97;5049426;28;20523;-59
2023/12/16 09:39:22;;;;;;;28.65;9.65;;;;;;;7.07;100.00;162414.44;5047854;28;20036;-58
2023/12/16 09:41:49;;;;;;;18.00;6.38;;;;;;;7.15;100.00;162434.63;5050191;28;20044;-58
2023/12/16 09:44:19;;;;;;;20.23;7.15;;;;;;;7.14;100.00;162431.94;5048099;28;20091;-59
2023/12/16 09:46:45;;;;;;;28.35;12.80;;;;;;;7.10;100.00;162421.19;5049898;28;20032;-58
2023/12/16 09:49:12;;;;;;;24.35;8.55;;;;;;;7.19;100.00;162444.06;5048392;28;20037;-58
2023/12/16 09:51:41;;;;;;;25.52;10.02;;;;;;;7.23;100.00;162456.19;5049199;28;20061;-58
2023/12/16 09:54:07;;;;;;;17.08;7.72;;;;;;;7.19;100.00;162445.38;5048407;28;20569;-58
2023/12/16 09:56:32;;;;;;;21.33;7.55;;;;;;;7.18;100.00;162442.72;5049626;28;20075;-59
2023/12/16 09:58:59;;;;;;;15.02;6.75;;;;;;;7.09;100.00;162418.47;5047601;28;20028;-58
2023/12/16 10:01:24;;;;;;;25.40;8.18;;;;;;;7.11;100.00;162423.88;5049315;28;20028;-58
2023/12/16 10:03:51;;;;;;;25.63;8.75;;;;;;;7.13;100.00;162429.22;5048274;28;20032;-59
2023/12/16 10:06:17;;;;;;;17.30;7.10;;;;;;;7.14;100.00;162431.94;5049430;28;20052;-58
2023/12/16 10:08:42;;;;;;;15.25;6.18;;;;;;;7.10;100.00;162422.50;5049855;28;20021;-58
2023/12/16 10:11:08;;;;;;;16.02;6.80;;;;;;;7.08;100.00;162415.78;5048050;28;20040;-58
2023/12/16 10:13:53;;;;;;;30.98;10.05;;;;;;;7.02;100.00;162400.94;5048982;28;20460;-58
2023/12/16 10:16:21;;;;;;;23.70;7.97;;;;;;;7.09;100.00;162419.81;5048234;28;20037;-58
2023/12/16 10:18:55;;;;;;;21.45;9.25;;;;;;;7.12;100.00;162427.91;5049335;28;20064;-59
2023/12/16 10:21:29;;;;;;;15.95;7.50;;;;;;;7.15;100.00;162434.63;5047457;28;20117;-58
2023/12/16 10:23:59;;;;;;;14.45;6.97;;;;;;;7.15;100.00;162434.63;5047993;28;20029;-58
2023/12/16 10:26:25;;;;;;;26.15;10.85;;;;;;;7.14;100.00;162433.31;5048697;28;20090;-58
2023/12/16 10:28:52;;;;;;;25.40;11.88;;;;;;;7.17;100.00;162440.03;5047708;28;20029;-59
2023/12/16 10:31:21;;;;;;;31.42;12.40;;;;;;;7.23;100.00;162454.81;5049163;28;20468;-58
2023/12/16 10:33:49;;;;;;;24.40;7.72;;;;;;;7.23;100.00;162456.19;5049393;28;20025;-59
2023/12/16 10:36:15;;;;;;;32.63;11.25;;;;;;;7.23;100.00;162456.19;5047551;28;20203;-59
2023/12/16 10:38:41;;;;;;;29.48;10.75;;;;;;;7.28;100.00;162469.63;5049494;28;20033;-58
2023/12/16 10:41:07;;;;;;;32.10;12.63;;;;;;;7.27;100.00;162466.94;5048005;28;20056;-58
2023/12/16 10:43:32;;;;;;;37.67;12.25;;;;;;;7.29;100.00;162471.00;5048528;28;20104;-59
2023/12/16 10:46:04;;;;;;;31.83;11.18;;;;;;;7.37;100.00;162491.19;5047766;28;20044;-59
2023/12/16 10:48:32;;;;;;;31.27;11.38;;;;;;;7.37;100.00;162491.19;5046367;28;20112;-59
2023/12/16 10:51:03;;;;;;;24.75;11.63;;;;;;;7.38;100.00;162493.91;5049774;28;20452;-58
2023/12/16 10:53:40;;;;;;;33.03;13.90;;;;;;;7.35;100.00;162487.16;5052178;28;20021;-58
2023/12/16 10:56:27;;;;;;;45.50;17.05;;;;;;;7.33;100.00;162480.44;5051440;28;20064;-59
2023/12/16 10:59:14;;;;;;;39.00;13.48;;;;;;;7.36;100.00;162488.50;5050610;28;20035;-58
2023/12/16 11:01:45;;;;;;;23.02;11.40;;;;;;;7.32;100.00;162477.75;5051678;28;20028;-58